Terminal Aerodrome Forecast
Issued by NWS

Home | Current Version | Previous Version | Text Only | Print | Product List | Glossary On
Versions: 1 2 3 4 5 6 7 8 9 10 11 12 13 14 15
000
FTUS44 KLUB 271701 AAE
TAFCDS
TAF AMD
KCDS 271701Z 2717/2812 09011KT 5SM -SN SCT020 OVC060
     FM271900 12008KT P6SM SCT008 OVC015=

USA.gov is the U.S. government's official web portal to all federal, state and local government web resources and services.